Madeline — WDF2406 — position and weather

sailwx.info

Track history (hours):
 
Tides and Currents Weather Stations Pressure Air Temp Water Temp Dewpoint Dewpoint Depression Visibility Wind Speed Wind Dir Waves Ship Positions

Madeline

Owner: Enterprise Marine Services, LLC, San Antonio, TX. More information available from US FCC via Universal Licensing System and Coast Guard Vessel Documentation Center.

Last reported at 2017-Oct-16 16:31 UTC. Time now 2017-Oct-20 12:49 UTC.
Position N 32°36' W 091°09'.

; draft 3 m.

Type: Ship (hazmat cat B). MMSI: 367350460.

Date/timePositionNaut miles runAvg speedWind from/ knotsBaromVisibWave heightAir tempDewpointWater temp
2017-Oct-16 16:31N 32°36' W 091°09'0 0.2
2017-Oct-16 16:30N 32°36' W 091°09'1 2.3
2017-Oct-16 15:58N 32°35' W 091°08'5 4.8
2017-Oct-16 14:51N 32°30' W 091°07'5 5.5
2017-Oct-16 14:00N 32°26' W 091°04'3 5.2
2017-Oct-16 13:30N 32°26' W 091°01'2 4.3
2017-Oct-16 13:00N 32°24' W 090°60'2 4.8
2017-Oct-16 12:30N 32°21' W 090°60'2 4.5
2017-Oct-16 12:00N 32°21' W 090°57'1 2.8
2017-Oct-16 11:30N 32°21' W 090°55'2 4.0
2017-Oct-16 11:00N 32°19' W 090°54'3 5.1
2017-Oct-16 10:30N 32°17' W 090°56'3 5.1
2017-Oct-16 10:00N 32°15' W 090°58'3 5.0
2017-Oct-16 09:30N 32°13' W 090°59'3 5.9
2017-Oct-16 09:00N 32°10' W 091°00'2 5.0
2017-Oct-16 08:30N 32°08' W 091°01'4 5.1
2017-Oct-16 07:43N 32°08' W 091°05'1 5.1
2017-Oct-16 07:30N 32°08' W 091°07'7 3.6
2017-Oct-16 05:32N 32°01' W 091°05'  
2017-Oct-13 10:19N 31°41' W 091°24'4 8.1
2017-Oct-13 09:53N 31°45' W 091°22'4 8.2
2017-Oct-13 09:25N 31°48' W 091°21'4 7.0
2017-Oct-13 08:49N 31°51' W 091°18'3 7.9
2017-Oct-13 08:24N 31°52' W 091°14'6 7.7
2017-Oct-13 07:40N 31°57' W 091°11'1 8.1
2017-Oct-13 07:30N 31°59' W 091°11'4 7.8
2017-Oct-13 07:00N 31°59' W 091°06'4 7.7
2017-Oct-13 06:30N 32°02' W 091°04'4 7.4
2017-Oct-13 05:58N 32°06' W 091°06'2 4.6
2017-Oct-13 05:30N 32°08' W 091°05'3 5.9
2017-Oct-13 05:00N 32°07' W 091°01'4 8.0
2017-Oct-13 04:30N 32°11' W 090°60'4 9.0
2017-Oct-13 04:01N 32°15' W 090°58'4 8.8
2017-Oct-13 03:30N 32°18' W 090°55'3 5.5
2017-Oct-13 03:00N 32°21' W 090°56'4 7.1
2017-Oct-13 02:30N 32°22' W 091°00'4 7.5
2017-Oct-13 02:00N 32°26' W 091°01'3 6.5
2017-Oct-13 01:31N 32°27' W 091°05'5 7.6
2017-Oct-13 00:50N 32°32' W 091°06'3 8.7
2017-Oct-13 00:30N 32°35' W 091°07'  
Track history (hours):
 
Tides and Currents Weather Stations Pressure Air Temp Water Temp Dewpoint Dewpoint Depression Visibility Wind Speed Wind Dir Waves Ship Positions

Madeline

Owner: Enterprise Marine Services, LLC, San Antonio, TX. More information available from US FCC via Universal Licensing System and Coast Guard Vessel Documentation Center.

Last reported at 2017-Oct-16 16:31 UTC. Time now 2017-Oct-20 12:49 UTC.
Position N 32°36' W 091°09'.

; draft 3 m.

Type: Ship (hazmat cat B). MMSI: 367350460.

Date/timePositionNaut miles runAvg speedWind from/ knotsBaromVisibWave heightAir tempDewpointWater temp
2017-Oct-16 16:31N 32°36' W 091°09'0 0.2
2017-Oct-16 16:30N 32°36' W 091°09'1 2.3
2017-Oct-16 15:58N 32°35' W 091°08'5 4.8
2017-Oct-16 14:51N 32°30' W 091°07'5 5.5
2017-Oct-16 14:00N 32°26' W 091°04'3 5.2
2017-Oct-16 13:30N 32°26' W 091°01'2 4.3
2017-Oct-16 13:00N 32°24' W 090°60'2 4.8
2017-Oct-16 12:30N 32°21' W 090°60'2 4.5
2017-Oct-16 12:00N 32°21' W 090°57'1 2.8
2017-Oct-16 11:30N 32°21' W 090°55'2 4.0
2017-Oct-16 11:00N 32°19' W 090°54'3 5.1
2017-Oct-16 10:30N 32°17' W 090°56'3 5.1
2017-Oct-16 10:00N 32°15' W 090°58'3 5.0
2017-Oct-16 09:30N 32°13' W 090°59'3 5.9
2017-Oct-16 09:00N 32°10' W 091°00'2 5.0
2017-Oct-16 08:30N 32°08' W 091°01'4 5.1
2017-Oct-16 07:43N 32°08' W 091°05'1 5.1
2017-Oct-16 07:30N 32°08' W 091°07'7 3.6
2017-Oct-16 05:32N 32°01' W 091°05'  
2017-Oct-13 10:19N 31°41' W 091°24'4 8.1
2017-Oct-13 09:53N 31°45' W 091°22'4 8.2
2017-Oct-13 09:25N 31°48' W 091°21'4 7.0
2017-Oct-13 08:49N 31°51' W 091°18'3 7.9
2017-Oct-13 08:24N 31°52' W 091°14'6 7.7
2017-Oct-13 07:40N 31°57' W 091°11'1 8.1
2017-Oct-13 07:30N 31°59' W 091°11'4 7.8
2017-Oct-13 07:00N 31°59' W 091°06'4 7.7
2017-Oct-13 06:30N 32°02' W 091°04'4 7.4
2017-Oct-13 05:58N 32°06' W 091°06'2 4.6
2017-Oct-13 05:30N 32°08' W 091°05'3 5.9
2017-Oct-13 05:00N 32°07' W 091°01'4 8.0
2017-Oct-13 04:30N 32°11' W 090°60'4 9.0
2017-Oct-13 04:01N 32°15' W 090°58'4 8.8
2017-Oct-13 03:30N 32°18' W 090°55'3 5.5
2017-Oct-13 03:00N 32°21' W 090°56'4 7.1
2017-Oct-13 02:30N 32°22' W 091°00'4 7.5
2017-Oct-13 02:00N 32°26' W 091°01'3 6.5
2017-Oct-13 01:31N 32°27' W 091°05'5 7.6
2017-Oct-13 00:50N 32°32' W 091°06'3 8.7
2017-Oct-13 00:30N 32°35' W 091°07'  

Dump ship's entire track history